Time;durP1;ratioP1;P1;durP2;ratioP2;P2;SDS_P1;SDS_P2;PMS_P1;PMS_P2;Temp;Humidity;BMP_temperature;BMP_pressure;BME280_temperature;BME280_humidity;BME280_pressure;Samples;Min_cycle;Max_cycle;Signal;HPM_P1;HPM_P2
2024/05/04 00:00:54;;;;;;;3.15;1.38;;;;;;;13.23;82.32;98213.97;5035299;28;19999;-96
2024/05/04 00:03:23;;;;;;;1.88;1.30;;;;;;;13.20;82.36;98217.31;5035734;28;20006;-96
2024/05/04 00:06:03;;;;;;;1.83;1.23;;;;;;;13.30;82.11;98233.25;5035348;28;20336;-95
2024/05/04 00:08:34;;;;;;;1.83;1.50;;;;;;;13.09;82.29;98208.69;5037203;28;19999;-95
2024/05/04 00:10:59;;;;;;;1.83;1.52;;;;;;;13.08;82.78;98210.59;5035582;28;20002;-96
2024/05/04 00:13:34;;;;;;;1.67;1.35;;;;;;;13.11;83.13;98204.59;5035025;28;20006;-96
2024/05/04 00:16:02;;;;;;;2.10;1.30;;;;;;;13.01;83.10;98201.34;5060962;28;20466;-96
2024/05/04 00:18:38;;;;;;;4.45;1.60;;;;;;;12.99;82.63;98203.56;5035544;28;20006;-96
2024/05/04 00:21:26;;;;;;;2.08;1.55;;;;;;;13.26;83.14;98237.66;5035640;28;20011;-96
2024/05/04 00:24:01;;;;;;;2.53;1.60;;;;;;;13.06;83.20;98207.41;5037231;28;20003;-96
2024/05/04 00:26:29;;;;;;;2.70;1.60;;;;;;;13.16;83.36;98209.03;5039978;28;20349;-95
2024/05/04 00:29:02;;;;;;;2.10;1.80;;;;;;;13.12;83.43;98221.59;5036574;28;20434;-96
2024/05/04 00:31:30;;;;;;;2.33;1.77;;;;;;;12.98;83.44;98208.19;5039393;28;20003;-96
2024/05/04 00:33:57;;;;;;;3.10;1.80;;;;;;;12.88;83.76;98203.06;5036794;28;20004;-95
2024/05/04 00:36:28;;;;;;;1.80;1.50;;;;;;;12.91;83.80;98210.56;5036495;28;20014;-95
2024/05/04 00:38:54;;;;;;;1.77;1.45;;;;;;;13.06;83.64;98236.34;5038599;28;19998;-95
2024/05/04 00:41:23;;;;;;;1.85;1.58;;;;;;;12.88;83.70;98228.16;5038230;28;20427;-95
2024/05/04 00:43:54;;;;;;;2.00;1.30;;;;;;;12.90;83.60;98223.25;5063211;28;20018;-96
2024/05/04 00:46:22;;;;;;;2.72;1.60;;;;;;;12.93;83.43;98222.63;5037996;28;20384;-95
2024/05/04 00:48:55;;;;;;;1.80;1.45;;;;;;;12.89;83.28;98220.88;5038351;28;20010;-95
2024/05/04 00:51:21;;;;;;;1.75;1.40;;;;;;;12.94;83.20;98239.63;5038647;28;20050;-95
2024/05/04 00:53:57;;;;;;;2.08;1.75;;;;;;;13.02;83.32;98246.19;5037563;28;20017;-96
2024/05/04 00:56:23;;;;;;;1.70;1.38;;;;;;;12.92;82.72;98239.16;5038402;28;19999;-95
2024/05/04 00:58:53;;;;;;;4.43;1.90;;;;;;;12.80;83.40;98214.63;5037035;28;19998;-96
2024/05/04 01:01:22;;;;;;;1.67;1.30;;;;;;;12.80;82.75;98223.53;5037656;28;20006;-96
2024/05/04 01:03:55;;;;;;;2.03;1.50;;;;;;;12.92;83.24;98236.44;5037388;28;20085;-96
2024/05/04 01:06:23;;;;;;;2.20;1.70;;;;;;;12.77;83.97;98216.06;5063113;28;19999;-95
2024/05/04 01:09:03;;;;;;;;;;;;;;;;;;;;;
2024/05/04 01:11:42;;;;;;;2.03;1.50;;;;;;;12.79;83.70;98226.56;4983552;28;20014;-95
2024/05/04 01:14:17;;;;;;;;;;;;;;;;;;;;;
2024/05/04 01:16:55;;;;;;;4.28;1.60;;;;;;;12.79;83.59;98229.25;4982474;28;20021;-96
2024/05/04 01:19:47;;;;;;;;;;;;;;;;;;;;;
2024/05/04 01:22:36;;;;;;;2.25;1.60;;;;;;;12.84;83.77;98251.50;5013247;28;20014;-96
2024/05/04 01:25:26;;;;;;;2.47;2.00;;;;;;;12.64;83.50;98233.94;4960199;28;19988;-96
2024/05/04 01:28:18;;;;;;;2.90;1.80;;;;;;;12.77;82.53;98248.47;4988254;28;20000;-96
2024/05/04 01:30:43;;;;;;;4.65;2.10;;;;;;;12.65;82.76;98242.84;4991675;28;20004;-96
2024/05/04 01:33:14;;;;;;;3.53;1.98;;;;;;;12.72;82.63;98262.09;4958390;28;20040;-96
2024/05/04 01:35:46;;;;;;;2.65;2.13;;;;;;;12.47;83.64;98237.34;4954762;28;20004;-96
2024/05/04 01:38:49;;;;;;;3.50;2.10;;;;;;;12.45;84.10;98250.38;4982563;28;20007;-96
2024/05/04 01:41:14;;;;;;;2.63;2.10;;;;;;;12.59;84.00;98271.88;4978459;28;20051;-96
2024/05/04 01:43:43;;;;;;;2.35;2.10;;;;;;;12.63;83.57;98272.84;4951710;28;20013;-96
2024/05/04 01:46:11;;;;;;;4.72;2.42;;;;;;;12.58;84.40;98267.59;4975722;28;20008;-95
2024/05/04 01:48:46;;;;;;;3.58;2.80;;;;;;;12.55;84.36;98273.59;4978078;28;20071;-94
2024/05/04 01:51:23;;;;;;;4.10;2.70;;;;;;;12.44;84.84;98251.47;4979746;28;20395;-96
2024/05/04 01:53:52;;;;;;;3.42;3.00;;;;;;;12.55;84.52;98254.69;4957000;28;20004;-96
2024/05/04 01:56:40;;;;;;;4.25;2.38;;;;;;;12.56;84.56;98258.22;4951397;28;20004;-96
2024/05/04 01:59:06;;;;;;;3.67;2.65;;;;;;;12.58;84.59;98261.41;5010496;28;19994;-94
2024/05/04 02:01:32;;;;;;;2.83;2.08;;;;;;;12.60;84.37;98259.97;5036892;28;20002;-96
2024/05/04 02:04:01;;;;;;;2.45;1.90;;;;;;;12.77;84.51;98290.91;5037112;28;19998;-94
2024/05/04 02:06:30;;;;;;;2.78;2.28;;;;;;;12.82;83.36;98274.53;5038826;28;20003;-94
2024/05/04 02:08:56;;;;;;;2.50;2.28;;;;;;;12.73;83.74;98266.41;5038328;28;20469;-96
2024/05/04 02:11:25;;;;;;;2.55;1.98;;;;;;;12.82;83.26;98277.25;5036816;28;20007;-96
2024/05/04 02:13:53;;;;;;;2.75;2.40;;;;;;;12.77;83.75;98266.59;5037274;28;20082;-96
2024/05/04 02:16:19;;;;;;;3.03;2.17;;;;;;;12.82;82.63;98271.84;5038086;28;20075;-96
2024/05/04 02:18:52;;;;;;;4.45;2.40;;;;;;;12.82;82.59;98271.84;5069742;28;20022;-96
2024/05/04 02:21:19;;;;;;;2.97;2.30;;;;;;;12.79;82.52;98273.25;5042896;28;20003;-96
2024/05/04 02:24:16;;;;;;;2.47;2.15;;;;;;;12.80;83.38;98293.75;5069809;28;20007;-96
2024/05/04 02:26:54;;;;;;;3.78;2.20;;;;;;;12.86;82.97;98303.31;5068712;28;20009;-95
2024/05/04 02:29:22;;;;;;;3.83;2.50;;;;;;;12.94;81.79;98301.78;5041584;28;20003;-96
2024/05/04 02:31:50;;;;;;;2.70;2.47;;;;;;;12.73;83.09;98282.59;5039680;28;20010;-95
2024/05/04 02:34:16;;;;;;;3.53;2.88;;;;;;;12.71;82.16;98280.22;5036529;28;20042;-96
2024/05/04 02:36:42;;;;;;;3.25;2.40;;;;;;;12.66;83.19;98279.56;5036114;28;20006;-93
2024/05/04 02:39:11;;;;;;;2.95;2.30;;;;;;;12.74;83.08;98285.00;5034838;28;20009;-94
2024/05/04 02:41:36;;;;;;;2.92;2.45;;;;;;;12.80;82.87;98295.66;5036011;28;20014;-95
2024/05/04 02:44:02;;;;;;;3.10;2.20;;;;;;;12.66;82.87;98276.84;5036626;28;19998;-95
2024/05/04 02:46:28;;;;;;;2.60;2.08;;;;;;;12.63;82.99;98275.56;5035444;28;20035;-94
2024/05/04 02:48:57;;;;;;;5.47;2.40;;;;;;;12.55;83.36;98268.19;5036405;28;20006;-94
2024/05/04 02:51:26;;;;;;;3.03;2.40;;;;;;;12.58;83.20;98278.41;5040645;28;20018;-95
2024/05/04 02:53:55;;;;;;;3.20;2.40;;;;;;;12.76;83.33;98300.88;5090710;28;19999;-95
2024/05/04 02:56:23;;;;;;;3.03;2.22;;;;;;;12.56;82.98;98291.41;5072973;27;20006;-95
2024/05/04 02:58:59;;;;;;;4.03;2.08;;;;;;;12.58;82.74;98300.00;5039900;28;19994;-96
2024/05/04 03:01:28;;;;;;;2.85;2.33;;;;;;;12.57;83.22;98311.09;5038409;28;20010;-95
2024/05/04 03:03:57;;;;;;;2.70;2.10;;;;;;;12.53;82.85;98314.44;5015621;28;20055;-96
2024/05/04 03:06:39;;;;;;;;;;;;;;;;;;;;;
2024/05/04 03:09:12;;;;;;;;;;;;;;;12.73;82.17;98344.72;5067910;28;20014;-96
2024/05/04 03:11:41;;;;;;;3.72;2.40;;;;;;;12.58;82.55;98332.41;5040121;28;19942;-95
2024/05/04 03:14:09;;;;;;;2.70;2.00;;;;;;;12.44;83.16;98305.44;5012606;28;20005;-96
2024/05/04 03:16:50;;;;;;;2.58;2.05;;;;;;;12.55;82.92;98303.28;5015725;28;20002;-96
2024/05/04 03:19:18;;;;;;;3.60;2.47;;;;;;;12.60;82.62;98311.28;5039655;28;20034;-96
2024/05/04 03:21:52;;;;;;;3.08;2.10;;;;;;;12.64;82.77;98331.16;5012837;28;20180;-96
2024/05/04 03:24:25;;;;;;;2.92;2.42;;;;;;;12.57;83.04;98330.78;5063258;28;19998;-96
2024/05/04 03:26:52;;;;;;;3.85;2.35;;;;;;;12.56;83.95;98350.81;5015835;28;20006;-95
2024/05/04 03:29:20;;;;;;;2.97;2.67;;;;;;;12.71;82.51;98363.94;5034569;28;19998;-96
2024/05/04 03:31:51;;;;;;;3.33;2.30;;;;;;;12.68;82.21;98356.47;5037102;28;20013;-95
2024/05/04 03:34:23;;;;;;;3.38;2.53;;;;;;;12.70;82.10;98348.84;5037199;28;20006;-95
2024/05/04 03:36:50;;;;;;;2.40;2.17;;;;;;;12.61;82.83;98337.16;5036885;28;20003;-95
2024/05/04 03:39:19;;;;;;;2.90;2.28;;;;;;;12.68;81.79;98345.66;5034865;28;20007;-94
2024/05/04 03:41:44;;;;;;;3.53;2.53;;;;;;;12.64;82.60;98341.97;5036072;28;19999;-96
2024/05/04 03:44:10;;;;;;;5.30;2.30;;;;;;;12.44;83.57;98354.03;5036443;28;20002;-96
2024/05/04 03:46:36;;;;;;;4.60;2.60;;;;;;;12.45;83.02;98365.63;5035434;28;20007;-96
2024/05/04 03:49:03;;;;;;;3.00;2.58;;;;;;;12.60;82.51;98381.50;5060678;28;20014;-96
2024/05/04 03:51:31;;;;;;;4.20;2.70;;;;;;;12.50;82.67;98371.72;5035457;28;20003;-96
2024/05/04 03:53:56;;;;;;;3.05;2.38;;;;;;;12.47;82.09;98360.72;5036113;28;20003;-96
2024/05/04 03:56:25;;;;;;;4.03;2.50;;;;;;;12.60;81.68;98361.81;5035356;28;20009;-96
2024/05/04 03:58:53;;;;;;;3.05;2.28;;;;;;;12.57;82.13;98360.50;5039826;28;20006;-96
2024/05/04 04:01:19;;;;;;;2.90;2.50;;;;;;;12.61;82.25;98376.88;5063939;28;20365;-95
2024/05/04 04:03:50;;;;;;;3.78;2.55;;;;;;;12.64;82.64;98392.50;5039284;28;20009;-95
2024/05/04 04:06:19;;;;;;;3.40;2.83;;;;;;;12.58;82.05;98385.63;5038108;28;19999;-95
2024/05/04 04:08:47;;;;;;;5.22;2.60;;;;;;;12.46;82.26;98376.13;5038650;28;20002;-96
2024/05/04 04:11:13;;;;;;;3.17;2.40;;;;;;;12.50;81.60;98393.31;5038321;28;20006;-95
2024/05/04 04:13:38;;;;;;;4.15;2.45;;;;;;;12.36;81.85;98387.16;5038251;28;20023;-96
2024/05/04 04:16:10;;;;;;;3.97;2.22;;;;;;;12.53;81.52;98406.22;5038195;28;20006;-96
2024/05/04 04:18:35;;;;;;;3.72;2.35;;;;;;;12.54;81.61;98402.41;5039377;28;20027;-96
2024/05/04 04:21:01;;;;;;;4.47;2.58;;;;;;;12.46;82.28;98405.03;5037566;28;20079;-96
2024/05/04 04:23:30;;;;;;;2.90;1.70;;;;;;;12.49;80.71;98410.66;5036454;28;20006;-95
2024/05/04 04:25:58;;;;;;;3.45;2.13;;;;;;;12.54;80.17;98383.50;5038072;28;20002;-95
2024/05/04 04:28:26;;;;;;;6.80;2.05;;;;;;;12.62;80.34;98356.91;5064447;28;20011;-94
2024/05/04 04:30:57;;;;;;;3.33;2.00;;;;;;;12.63;80.21;98356.56;5037253;28;20430;-94
2024/05/04 04:33:23;;;;;;;3.47;1.90;;;;;;;12.70;80.80;98381.25;5038130;28;20006;-96
2024/05/04 04:35:49;;;;;;;3.08;2.10;;;;;;;12.56;81.03;98388.63;5038080;28;20018;-96
2024/05/04 04:38:14;;;;;;;2.92;2.17;;;;;;;12.59;81.59;98404.19;5037958;28;19999;-96
2024/05/04 04:40:45;;;;;;;5.55;2.58;;;;;;;12.79;81.52;98426.44;5037017;28;20010;-95
2024/05/04 04:43:16;;;;;;;2.92;1.95;;;;;;;12.87;80.29;98423.00;5037373;27;20038;-95
2024/05/04 04:45:49;;;;;;;2.78;2.20;;;;;;;12.89;79.71;98421.59;5036288;28;20010;-96
2024/05/04 04:48:15;;;;;;;2.20;1.63;;;;;;;12.89;78.77;98426.22;5037007;28;20003;-95
2024/05/04 04:50:41;;;;;;;2.78;2.17;;;;;;;13.02;79.70;98455.06;5037223;28;20039;-95
2024/05/04 04:53:09;;;;;;;4.95;2.20;;;;;;;13.04;79.52;98463.66;5063095;28;20026;-94
2024/05/04 04:55:43;;;;;;;4.40;2.58;;;;;;;13.01;78.69;98436.44;5038239;28;20003;-95
2024/05/04 04:58:16;;;;;;;8.77;2.72;;;;;;;12.99;79.55;98449.47;5038745;28;20430;-96
2024/05/04 05:00:46;;;;;;;6.88;3.22;;;;;;;12.96;80.97;98455.50;5039665;28;20027;-96
2024/05/04 05:03:13;;;;;;;3.83;2.20;;;;;;;13.00;79.02;98451.06;5039404;28;20056;-95
2024/05/04 05:05:40;;;;;;;4.38;2.38;;;;;;;12.86;80.17;98434.91;5060916;28;20003;-95
2024/05/04 05:08:12;;;;;;;6.25;2.80;;;;;;;12.79;80.41;98435.34;5037288;28;20446;-96
2024/05/04 05:10:41;;;;;;;2.95;2.15;;;;;;;12.87;81.15;98458.94;5038461;28;20002;-95
2024/05/04 05:13:11;;;;;;;3.03;2.08;;;;;;;13.01;79.79;98452.66;5063605;28;20078;-95
2024/05/04 05:15:44;;;;;;;3.03;2.00;;;;;;;13.05;79.25;98457.16;5064682;28;20003;-96
2024/05/04 05:18:13;;;;;;;2.83;2.10;;;;;;;13.12;80.13;98471.03;5038352;28;20110;-95
2024/05/04 05:20:39;;;;;;;2.17;1.88;;;;;;;13.19;79.95;98467.09;5037863;28;20003;-96
2024/05/04 05:29:34;;;;;;;5.22;2.05;;;;;;;13.77;77.40;98458.06;4936493;28;20126;-96
2024/05/04 05:32:00;;;;;;;2.17;1.85;;;;;;;13.71;77.83;98451.19;5039371;28;20076;-96
2024/05/04 05:34:26;;;;;;;3.90;2.30;;;;;;;13.93;77.12;98469.28;5036718;28;20463;-95
2024/05/04 05:36:55;;;;;;;2.10;1.70;;;;;;;14.10;75.73;98476.66;5036953;28;20079;-95
2024/05/04 05:39:21;;;;;;;2.83;1.70;;;;;;;14.01;73.94;98465.81;5062670;28;20006;-96
2024/05/04 05:41:49;;;;;;;2.42;1.77;;;;;;;14.02;73.85;98485.53;5062258;28;20009;-94
2024/05/04 05:44:15;;;;;;;5.30;1.83;;;;;;;14.08;74.12;98481.59;5037194;28;20006;-96
2024/05/04 05:46:46;;;;;;;4.22;1.92;;;;;;;14.08;75.46;98478.88;5036940;28;20006;-94
2024/05/04 05:49:15;;;;;;;3.13;1.50;;;;;;;14.19;73.40;98490.22;5036300;28;20435;-96
2024/05/04 05:51:44;;;;;;;4.97;1.50;;;;;;;14.28;72.09;98488.34;5036205;28;20078;-96
2024/05/04 05:54:16;;;;;;;1.85;1.20;;;;;;;14.39;72.53;98486.13;5037175;28;20035;-96
2024/05/04 05:56:46;;;;;;;1.80;1.17;;;;;;;14.45;72.73;98496.50;5062011;28;20038;-95
2024/05/04 05:59:12;;;;;;;2.03;1.42;;;;;;;14.47;71.71;98488.84;5036448;28;19998;-94
2024/05/04 06:01:45;;;;;;;3.97;1.90;;;;;;;14.61;71.23;98480.63;5035885;28;20002;-94
2024/05/04 06:04:10;;;;;;;4.03;1.60;;;;;;;14.69;71.21;98482.56;5037187;28;20012;-94
2024/05/04 06:10:01;;;;;;;4.00;1.85;;;;;;;14.82;70.27;98486.22;5090111;28;20013;-96
2024/05/04 06:12:50;;;;;;;3.35;2.10;;;;;;;14.90;70.37;98519.84;5063336;28;20009;-96
2024/05/04 06:15:36;;;;;;;2.70;2.00;;;;;;;14.73;70.18;98497.06;5037681;28;20066;-96
2024/05/04 06:18:04;;;;;;;4.40;1.95;;;;;;;14.74;69.80;98503.28;5039943;28;20010;-95
2024/05/04 06:20:33;;;;;;;5.88;2.30;;;;;;;14.63;70.63;98491.94;5036708;28;20017;-94
2024/05/04 06:23:17;;;;;;;3.13;2.10;;;;;;;14.71;70.02;98491.16;5034155;28;20007;-94
2024/05/04 06:26:08;;;;;;;4.65;2.40;;;;;;;14.71;70.35;98512.84;5041099;28;20454;-96
2024/05/04 06:28:37;;;;;;;2.80;1.83;;;;;;;14.71;69.60;98493.06;5085369;28;20011;-95
2024/05/04 06:31:08;;;;;;;3.13;1.60;;;;;;;14.88;68.95;98522.06;5037102;28;20006;-95
2024/05/04 06:33:36;;;;;;;1.80;1.60;;;;;;;14.80;68.90;98512.84;5036244;28;20014;-94
2024/05/04 06:36:03;;;;;;;2.78;1.55;;;;;;;14.93;68.99;98551.75;5036493;28;20010;-95
2024/05/04 06:38:42;;;;;;;3.05;1.60;;;;;;;15.04;69.56;98549.53;5035825;28;20002;-94
2024/05/04 06:41:13;;;;;;;2.55;1.48;;;;;;;14.97;70.31;98532.94;5062142;28;20006;-95
2024/05/04 06:43:39;;;;;;;3.30;2.15;;;;;;;15.25;68.83;98574.09;5035688;28;20415;-95
2024/05/04 06:46:15;;;;;;;3.67;1.95;;;;;;;15.10;69.04;98546.34;5036436;28;20009;-96
2024/05/04 06:48:42;;;;;;;6.70;2.00;;;;;;;15.17;69.38;98562.16;5037470;28;20017;-95
2024/05/04 06:51:08;;;;;;;2.67;1.80;;;;;;;15.17;69.44;98548.59;5037412;28;20006;-96
2024/05/04 06:53:35;;;;;;;3.55;2.00;;;;;;;15.15;68.35;98543.47;5062671;28;20022;-96
2024/05/04 06:56:10;;;;;;;5.72;2.45;;;;;;;15.27;69.49;98569.16;5060958;28;20017;-95
2024/05/04 06:58:35;;;;;;;3.35;2.05;;;;;;;15.55;68.43;98583.97;5036324;28;20022;-95
2024/05/04 07:01:03;;;;;;;6.35;2.35;;;;;;;15.45;67.56;98561.81;5035320;28;20446;-95
2024/05/04 07:03:35;;;;;;;4.65;2.45;;;;;;;15.50;67.96;98570.59;5036522;28;19998;-96
2024/05/04 07:06:07;;;;;;;3.58;2.38;;;;;;;15.64;67.93;98566.91;5034479;28;20038;-93
2024/05/04 07:08:41;;;;;;;3.63;2.40;;;;;;;15.76;66.99;98573.28;5035331;28;20542;-96
2024/05/04 07:11:12;;;;;;;2.90;1.90;;;;;;;15.81;65.96;98569.59;5037312;28;20311;-94
2024/05/04 07:14:44;;;;;;;3.80;1.90;;;;;;;15.96;65.73;98569.09;5064219;28;20006;-94
2024/05/04 07:17:16;;;;;;;3.30;2.25;;;;;;;15.96;67.20;98549.31;5064352;28;20042;-96
2024/05/04 07:19:58;;;;;;;;;;;;;;;;;;;;;
2024/05/04 07:22:31;;;;;;;5.45;2.40;;;;;;;15.89;67.58;98573.41;5064983;28;20121;-95
2024/05/04 07:24:59;;;;;;;5.20;2.40;;;;;;;15.92;68.12;98587.16;5037150;28;20010;-96
2024/05/04 07:27:31;;;;;;;2.83;2.05;;;;;;;15.92;67.54;98583.66;5036819;28;20023;-96
2024/05/04 07:29:57;;;;;;;5.53;2.08;;;;;;;16.16;66.87;98597.47;5035851;28;20002;-96
2024/05/04 07:32:26;;;;;;;4.50;2.00;;;;;;;16.35;65.95;98609.84;5033697;28;20010;-94
2024/05/04 07:34:53;;;;;;;2.78;1.80;;;;;;;16.15;65.88;98584.22;5035910;28;20031;-95
2024/05/04 07:37:25;;;;;;;3.13;1.88;;;;;;;16.31;66.02;98592.59;5062087;28;20014;-95
2024/05/04 07:39:54;;;;;;;3.08;1.88;;;;;;;16.59;64.75;98632.97;5035456;28;20507;-94
2024/05/04 07:42:31;;;;;;;3.75;1.73;;;;;;;16.40;64.78;98598.81;5036540;28;20002;-94
2024/05/04 07:44:57;;;;;;;2.70;1.60;;;;;;;16.50;63.75;98605.81;5058066;28;20010;-94
2024/05/04 07:47:52;;;;;;;4.57;1.60;;;;;;;16.82;63.96;98611.75;5034763;28;20010;-95
2024/05/04 07:50:20;;;;;;;2.63;1.63;;;;;;;16.87;63.14;98608.84;5028116;28;20003;-95
2024/05/04 07:53:03;;;;;;;4.60;2.70;;;;;;;17.01;63.29;98608.59;4978898;28;20447;-94
2024/05/04 07:55:30;;;;;;;2.55;1.60;;;;;;;17.37;63.11;98627.88;5031225;28;20316;-95
2024/05/04 07:58:06;;;;;;;;;;;;;;;;;;;;;
2024/05/04 08:00:40;;;;;;;2.50;1.42;;;;;;;17.43;62.50;98612.16;5006352;28;20014;-95
2024/05/04 08:03:10;;;;;;;3.35;1.80;;;;;;;17.51;62.08;98605.81;5028149;28;20024;-94
2024/05/04 08:05:36;;;;;;;2.78;1.52;;;;;;;17.68;59.93;98602.19;4979499;28;19991;-96
2024/05/04 08:08:07;;;;;;;2.92;1.80;;;;;;;17.69;60.78;98600.25;4978639;28;19995;-95
2024/05/04 08:10:35;;;;;;;4.80;1.70;;;;;;;17.67;58.16;98595.13;4981125;28;20048;-96
2024/05/04 08:13:05;;;;;;;2.92;1.73;;;;;;;17.75;58.13;98590.72;4979250;28;20088;-96
2024/05/04 08:15:30;;;;;;;2.83;2.00;;;;;;;17.94;59.61;98615.56;4978896;28;19999;-95
2024/05/04 08:17:58;;;;;;;4.25;1.60;;;;;;;18.02;58.68;98602.19;4977941;28;20496;-94
2024/05/04 08:20:27;;;;;;;2.80;1.48;;;;;;;17.91;59.14;98608.06;4986028;28;20015;-95
2024/05/04 08:22:58;;;;;;;7.68;1.67;;;;;;;17.92;59.19;98620.53;5035816;28;20003;-96
2024/05/04 08:25:26;;;;;;;;;;;;;;;18.12;59.62;98645.34;5036873;28;20010;-94
2024/05/04 08:27:54;;;;;;;3.38;1.60;;;;;;;17.81;59.80;98635.69;5036129;28;19942;-94
2024/05/04 08:30:22;;;;;;;4.75;1.50;;;;;;;18.04;59.54;98638.06;5059502;28;20002;-94
2024/05/04 08:33:03;;;;;;;2.42;1.33;;;;;;;17.92;59.38;98636.09;5060042;27;20009;-94
2024/05/04 08:35:29;;;;;;;3.17;1.33;;;;;;;17.90;59.66;98635.63;5036844;28;20003;-95
2024/05/04 08:37:54;;;;;;;2.72;1.48;;;;;;;18.05;59.36;98659.50;5035536;28;20002;-94
2024/05/04 08:43:16;;;;;;;2.20;1.35;;;;;;;18.02;60.08;98654.75;5064260;28;20003;-95
2024/05/04 08:45:57;;;;;;;4.25;1.50;;;;;;;17.93;59.97;98662.22;5038514;28;20075;-95
2024/05/04 08:51:49;;;;;;;;;;;;;;;;;;;;;
2024/05/04 08:54:22;;;;;;;4.78;2.50;;;;;;;17.67;62.06;98670.56;5026558;28;20339;-95
2024/05/04 08:56:55;;;;;;;;;;;;;;;17.84;62.50;98694.94;4981991;28;20498;-96
2024/05/04 08:59:34;;;;;;;4.55;1.75;;;;;;;17.51;62.32;98671.16;5005930;28;19942;-96
2024/05/04 09:02:14;;;;;;;;;;;;;;;;;;;;;
2024/05/04 09:05:06;;;;;;;2.88;1.70;;;;;;;17.63;63.23;98692.22;5010454;28;19991;-96
2024/05/04 09:07:58;;;;;;;5.22;1.77;;;;;;;17.76;61.61;98693.88;5008035;28;20008;-96
2024/05/04 09:10:27;;;;;;;;;;;;;;;17.87;61.89;98702.47;5031742;28;20065;-96
2024/05/04 09:12:55;;;;;;;7.90;1.90;;;;;;;17.90;61.05;98682.72;5005719;28;19930;-95
2024/05/04 09:15:24;;;;;;;4.70;1.58;;;;;;;18.28;60.18;98683.66;5005973;28;20043;-96
2024/05/04 09:17:55;;;;;;;2.70;1.63;;;;;;;18.28;59.60;98676.28;4981833;28;20011;-96
2024/05/04 09:20:26;;;;;;;1.83;1.40;;;;;;;18.46;58.88;98690.50;4982160;28;20006;-94
2024/05/04 09:25:43;;;;;;;;;;;;;;;;;;;;;
2024/05/04 09:28:16;;;;;;;4.55;1.73;;;;;;;18.35;58.42;98705.72;5077879;28;20002;-96
2024/05/04 09:30:59;;;;;;;3.70;1.58;;;;;;;18.35;58.39;98687.41;5095111;23;20022;-96
2024/05/04 09:33:26;;;;;;;2.47;1.27;;;;;;;18.36;59.55;98678.13;5022249;28;20015;-96
2024/05/04 09:36:10;;;;;;;3.38;1.60;;;;;;;18.36;58.23;98699.13;5017398;28;20010;-96
2024/05/04 09:38:59;;;;;;;2.35;1.50;;;;;;;18.14;58.94;98681.25;5045174;28;20039;-95
2024/05/04 09:41:53;;;;;;;4.15;1.70;;;;;;;18.33;58.01;98691.63;5041130;28;20006;-95
2024/05/04 09:44:52;;;;;;;3.42;1.60;;;;;;;18.13;57.99;98691.31;5046844;28;20043;-95
2024/05/04 09:47:32;;;;;;;;;;;;;;;;;;;;;
2024/05/04 09:50:19;;;;;;;5.50;1.93;;;;;;;18.58;57.39;98698.72;5047149;27;19995;-95
2024/05/04 09:52:45;;;;;;;8.15;1.70;;;;;;;18.92;57.67;98695.94;5019109;28;20002;-95
2024/05/04 09:55:11;;;;;;;2.85;1.60;;;;;;;19.02;56.66;98711.06;5014386;28;20003;-95
2024/05/04 09:57:38;;;;;;;6.30;1.65;;;;;;;18.95;56.75;98684.34;5039297;28;20056;-94
2024/05/04 10:00:07;;;;;;;3.83;1.83;;;;;;;18.85;57.26;98685.59;5012344;28;20025;-95
2024/05/04 10:02:49;;;;;;;;;;;;;;;;;;;;;
2024/05/04 10:05:32;;;;;;;3.55;1.60;;;;;;;18.46;57.97;98711.53;5043194;28;20002;-93
2024/05/04 10:08:00;;;;;;;3.95;1.40;;;;;;;18.26;60.09;98700.34;5062363;28;20003;-95
2024/05/04 10:10:39;;;;;;;4.63;2.60;;;;;;;18.13;61.72;98712.31;5036784;28;20006;-96
2024/05/04 10:13:24;;;;;;;3.45;2.25;;;;;;;18.00;63.53;98719.66;5040170;28;20014;-96
2024/05/04 10:15:58;;;;;;;4.35;2.35;;;;;;;17.96;63.89;98718.72;5014468;28;20027;-96
2024/05/04 10:19:07;;;;;;;;;;;;;;;;;;;;;
2024/05/04 10:21:52;;;;;;;2.83;1.50;;;;;;;17.96;62.11;98714.06;5071155;28;20015;-95
2024/05/04 10:25:16;;;;;;;4.20;1.70;;;;;;;18.11;62.73;98733.66;5012249;28;20453;-96
2024/05/04 10:28:08;;;;;;;8.43;1.60;;;;;;;17.94;61.90;98724.50;5038724;28;20017;-96
2024/05/04 10:30:36;;;;;;;2.17;1.40;;;;;;;17.90;61.81;98722.78;5080381;28;20112;-96
2024/05/04 10:34:02;;;;;;;2.80;1.50;;;;;;;17.86;61.29;98695.41;5046484;27;20257;-96
2024/05/04 10:36:23;;;;;;;3.60;1.60;;;;;;;18.06;60.23;98691.09;5058814;28;20009;-95
2024/05/04 10:39:22;;;;;;;3.22;1.40;;;;;;;18.16;60.23;98695.31;5047121;28;20026;-96
2024/05/04 10:42:06;;;;;;;;;;;;;;;;;;;;;
2024/05/04 10:44:48;;;;;;;4.20;1.90;;;;;;;18.27;59.99;98709.31;5074964;28;19998;-95
2024/05/04 10:47:23;;;;;;;;;;;;;;;18.37;60.11;98733.44;5070005;28;20070;-96
2024/05/04 10:50:09;;;;;;;2.55;1.40;;;;;;;18.31;60.40;98712.97;5093363;27;19957;-95
2024/05/04 10:52:45;;;;;;;5.72;1.70;;;;;;;18.35;59.67;98708.44;5071145;28;20013;-96
2024/05/04 10:55:16;;;;;;;4.95;1.80;;;;;;;18.67;59.87;98722.38;5069133;28;20150;-96
2024/05/04 10:58:09;;;;;;;4.57;1.60;;;;;;;18.74;58.56;98730.81;5042885;28;20049;-96
2024/05/04 11:01:07;;;;;;;;;;;;;;;;;;;;;
2024/05/04 11:04:03;;;;;;;6.32;1.80;;;;;;;18.92;55.90;98685.81;4974422;28;20012;-95
2024/05/04 11:06:40;;;;;;;;;;;;;;;;;;;;;
2024/05/04 11:09:24;;;;;;;3.97;1.70;;;;;;;19.41;54.59;98685.00;5102951;28;20001;-96
2024/05/04 11:12:02;;;;;;;3.10;1.38;;;;;;;19.55;53.53;98682.69;5054270;28;20005;-94
2024/05/04 11:14:36;;;;;;;3.17;1.67;;;;;;;19.68;52.14;98685.38;5124719;28;20002;-94
2024/05/04 11:17:20;;;;;;;3.00;1.30;;;;;;;19.40;52.69;98705.22;5067500;28;20002;-95
2024/05/04 11:20:03;;;;;;;;;;;;;;;;;;;;;
2024/05/04 11:22:37;;;;;;;4.03;1.48;;;;;;;19.50;53.12;98712.94;5094513;28;20006;-96
2024/05/04 11:25:13;;;;;;;2.83;1.50;;;;;;;19.59;53.20;98719.09;5067405;28;20008;-96
2024/05/04 11:27:51;;;;;;;4.72;1.70;;;;;;;19.78;52.92;98726.69;5045656;28;19998;-96
2024/05/04 11:30:37;;;;;;;;;;;;;;;;;;;;;
2024/05/04 11:33:06;;;;;;;4.20;1.70;;;;;;;19.92;52.14;98714.59;5065217;28;20007;-95
2024/05/04 11:36:05;;;;;;;4.10;1.70;;;;;;;20.07;52.50;98711.13;5061212;28;19999;-96
2024/05/04 11:38:45;;;;;;;6.97;1.85;;;;;;;19.87;52.20;98715.63;5064860;28;20006;-96
2024/05/04 11:41:34;;;;;;;3.60;1.60;;;;;;;19.67;52.93;98702.91;5038598;28;19995;-96
2024/05/04 11:44:02;;;;;;;5.93;1.80;;;;;;;19.79;53.48;98730.22;5042091;28;20005;-95
2024/05/04 11:46:38;;;;;;;3.45;1.77;;;;;;;19.54;51.21;98702.94;5035832;28;20419;-96
2024/05/04 11:49:16;;;;;;;8.25;1.75;;;;;;;19.12;52.36;98716.84;5063380;28;20025;-95
2024/05/04 11:51:43;;;;;;;2.58;1.80;;;;;;;18.69;53.68;98711.91;5038399;28;20009;-96
2024/05/04 11:54:22;;;;;;;;;;;;;;;;;;;;;
2024/05/04 11:57:10;;;;;;;;;;;;;;;;;;;;;
2024/05/04 11:59:37;;;;;;;6.35;2.42;;;;;;;17.92;54.79;98747.75;5064132;28;20013;-96
2024/05/04 12:02:05;;;;;;;7.32;2.55;;;;;;;17.69;55.59;98711.88;5061968;28;20002;-96
2024/05/04 12:04:41;;;;;;;7.05;2.63;;;;;;;17.62;56.25;98723.28;5062654;28;20014;-96
2024/05/04 12:07:35;;;;;;;6.22;2.42;;;;;;;17.84;56.36;98726.84;5062355;28;20002;-96
2024/05/04 12:10:12;;;;;;;4.07;2.50;;;;;;;18.08;57.00;98747.97;5061164;28;20071;-96
2024/05/04 12:12:40;;;;;;;6.28;2.53;;;;;;;17.86;58.19;98743.66;5037755;28;19995;-96
2024/05/04 12:15:09;;;;;;;10.02;3.60;;;;;;;17.84;59.08;98732.28;5062281;28;20022;-96
2024/05/04 12:17:58;;;;;;;5.80;2.72;;;;;;;17.97;58.88;98729.31;5060498;28;20450;-96
2024/05/04 12:21:17;;;;;;;;;;;;;;;;;;;;;
2024/05/04 12:24:18;;;;;;;;;;;;;;;;;;;;;
2024/05/04 12:26:57;;;;;;;5.90;2.85;;;;;;;18.28;59.15;98719.91;5072167;28;20406;-96
2024/05/04 12:29:37;;;;;;;7.25;3.20;;;;;;;18.27;59.26;98731.13;5042567;28;20018;-96
2024/05/04 12:32:12;;;;;;;6.22;3.10;;;;;;;18.19;59.93;98727.34;5072570;28;20002;-96
2024/05/04 12:35:10;;;;;;;;;;;;;;;;;;;;;
2024/05/04 12:38:15;;;;;;;13.45;3.35;;;;;;;18.73;57.92;98729.97;5007661;28;20398;-96
2024/05/04 12:45:02;;;;;;;;;;;;;;;;;;;;;
2024/05/04 12:47:47;;;;;;;;;;;;;;;;;;;;;
2024/05/04 12:50:26;;;;;;;4.70;2.63;;;;;;;18.83;59.49;98761.50;5072284;28;20002;-96
2024/05/04 12:53:03;;;;;;;10.07;3.47;;;;;;;18.64;62.18;98775.66;5047591;28;20006;-96
2024/05/04 13:02:34;;;;;;;8.75;3.17;;;;;;;17.94;66.24;98742.78;5075660;28;20001;-96
2024/05/04 13:05:14;;;;;;;6.43;3.40;;;;;;;18.00;66.60;98765.97;5096157;28;20000;-96
2024/05/04 13:07:45;;;;;;;10.02;3.35;;;;;;;17.67;66.11;98728.53;5059828;28;20009;-96
2024/05/04 13:10:29;;;;;;;;;;;;;;;;;;;;;